sensor_id;sensor_type;location;lat;lon;timestamp;P1;durP1;ratioP1;P2;durP2;ratioP2
57191;SDS011;43052;52.588;13.396;2023-04-01T00:00:44;8.05;;;5.18;;
57191;SDS011;43052;52.588;13.396;2023-04-01T00:03:09;7.78;;;5.15;;
57191;SDS011;43052;52.588;13.396;2023-04-01T00:05:34;6.53;;;4.78;;
57191;SDS011;43052;52.588;13.396;2023-04-01T00:08:04;6.47;;;4.80;;
57191;SDS011;43052;52.588;13.396;2023-04-01T00:10:29;6.30;;;4.32;;
57191;SDS011;43052;52.588;13.396;2023-04-01T00:12:55;9.27;;;4.18;;
57191;SDS011;43052;52.588;13.396;2023-04-01T00:15:20;6.32;;;4.15;;
57191;SDS011;43052;52.588;13.396;2023-04-01T00:17:45;6.55;;;4.15;;
57191;SDS011;43052;52.588;13.396;2023-04-01T00:20:11;7.10;;;4.22;;
57191;SDS011;43052;52.588;13.396;2023-04-01T00:22:37;6.32;;;4.22;;
57191;SDS011;43052;52.588;13.396;2023-04-01T00:25:03;5.25;;;3.58;;
57191;SDS011;43052;52.588;13.396;2023-04-01T00:27:29;6.95;;;3.80;;
57191;SDS011;43052;52.588;13.396;2023-04-01T00:29:54;7.35;;;4.38;;
57191;SDS011;43052;52.588;13.396;2023-04-01T00:32:20;6.38;;;4.05;;
57191;SDS011;43052;52.588;13.396;2023-04-01T00:34:45;9.23;;;4.70;;
57191;SDS011;43052;52.588;13.396;2023-04-01T00:37:10;10.05;;;4.53;;
57191;SDS011;43052;52.588;13.396;2023-04-01T00:39:36;7.75;;;4.40;;
57191;SDS011;43052;52.588;13.396;2023-04-01T00:42:02;6.43;;;4.28;;
57191;SDS011;43052;52.588;13.396;2023-04-01T00:44:30;8.25;;;4.60;;
57191;SDS011;43052;52.588;13.396;2023-04-01T00:46:57;9.32;;;5.00;;
57191;SDS011;43052;52.588;13.396;2023-04-01T00:49:28;9.18;;;4.63;;
57191;SDS011;43052;52.588;13.396;2023-04-01T00:51:58;7.40;;;4.25;;
57191;SDS011;43052;52.588;13.396;2023-04-01T00:54:26;5.95;;;4.00;;
57191;SDS011;43052;52.588;13.396;2023-04-01T00:56:56;6.22;;;3.70;;
57191;SDS011;43052;52.588;13.396;2023-04-01T00:59:26;7.55;;;4.05;;
57191;SDS011;43052;52.588;13.396;2023-04-01T01:01:58;6.32;;;4.07;;
57191;SDS011;43052;52.588;13.396;2023-04-01T01:04:27;8.13;;;3.85;;
57191;SDS011;43052;52.588;13.396;2023-04-01T01:07:06;6.10;;;4.30;;
57191;SDS011;43052;52.588;13.396;2023-04-01T01:15:36;6.93;;;4.18;;
57191;SDS011;43052;52.588;13.396;2023-04-01T01:21:05;6.60;;;4.18;;
57191;SDS011;43052;52.588;13.396;2023-04-01T01:26:35;5.40;;;3.88;;
57191;SDS011;43052;52.588;13.396;2023-04-01T01:34:53;5.10;;;3.78;;
57191;SDS011;43052;52.588;13.396;2023-04-01T01:37:39;7.68;;;4.38;;
57191;SDS011;43052;52.588;13.396;2023-04-01T01:40:08;6.70;;;4.40;;
57191;SDS011;43052;52.588;13.396;2023-04-01T01:42:43;9.93;;;4.82;;
57191;SDS011;43052;52.588;13.396;2023-04-01T01:45:12;5.72;;;4.25;;
57191;SDS011;43052;52.588;13.396;2023-04-01T01:47:42;8.75;;;4.82;;
57191;SDS011;43052;52.588;13.396;2023-04-01T01:50:08;11.38;;;6.03;;
57191;SDS011;43052;52.588;13.396;2023-04-01T01:52:34;10.32;;;6.18;;
57191;SDS011;43052;52.588;13.396;2023-04-01T01:55:00;8.68;;;5.47;;
57191;SDS011;43052;52.588;13.396;2023-04-01T01:57:26;7.72;;;4.97;;
57191;SDS011;43052;52.588;13.396;2023-04-01T01:59:55;8.45;;;5.53;;
57191;SDS011;43052;52.588;13.396;2023-04-01T02:02:24;7.85;;;5.20;;
57191;SDS011;43052;52.588;13.396;2023-04-01T02:04:51;7.15;;;4.40;;
57191;SDS011;43052;52.588;13.396;2023-04-01T02:07:22;7.20;;;4.65;;
57191;SDS011;43052;52.588;13.396;2023-04-01T02:09:52;8.73;;;5.00;;
57191;SDS011;43052;52.588;13.396;2023-04-01T02:12:17;7.55;;;4.35;;
57191;SDS011;43052;52.588;13.396;2023-04-01T02:15:05;6.80;;;4.43;;
57191;SDS011;43052;52.588;13.396;2023-04-01T02:17:34;9.63;;;4.15;;
57191;SDS011;43052;52.588;13.396;2023-04-01T02:20:09;7.30;;;4.22;;
57191;SDS011;43052;52.588;13.396;2023-04-01T02:22:46;7.60;;;3.90;;
57191;SDS011;43052;52.588;13.396;2023-04-01T02:25:15;6.60;;;4.00;;
57191;SDS011;43052;52.588;13.396;2023-04-01T02:27:44;6.70;;;3.85;;
57191;SDS011;43052;52.588;13.396;2023-04-01T02:30:10;6.38;;;4.13;;
57191;SDS011;43052;52.588;13.396;2023-04-01T02:32:37;8.20;;;4.13;;
57191;SDS011;43052;52.588;13.396;2023-04-01T02:35:05;9.02;;;4.45;;
57191;SDS011;43052;52.588;13.396;2023-04-01T02:37:32;6.82;;;3.83;;
57191;SDS011;43052;52.588;13.396;2023-04-01T02:40:01;6.90;;;3.80;;
57191;SDS011;43052;52.588;13.396;2023-04-01T02:42:29;8.40;;;4.28;;
57191;SDS011;43052;52.588;13.396;2023-04-01T02:44:55;7.93;;;3.83;;
57191;SDS011;43052;52.588;13.396;2023-04-01T02:47:20;8.88;;;3.92;;
57191;SDS011;43052;52.588;13.396;2023-04-01T02:49:45;7.72;;;3.80;;
57191;SDS011;43052;52.588;13.396;2023-04-01T02:52:10;8.35;;;4.20;;
57191;SDS011;43052;52.588;13.396;2023-04-01T02:54:35;8.10;;;3.80;;
57191;SDS011;43052;52.588;13.396;2023-04-01T02:57:01;6.07;;;3.80;;
57191;SDS011;43052;52.588;13.396;2023-04-01T02:59:26;7.80;;;3.60;;
57191;SDS011;43052;52.588;13.396;2023-04-01T03:01:51;7.22;;;3.90;;
57191;SDS011;43052;52.588;13.396;2023-04-01T03:04:17;7.85;;;4.05;;
57191;SDS011;43052;52.588;13.396;2023-04-01T03:06:42;7.13;;;3.60;;
57191;SDS011;43052;52.588;13.396;2023-04-01T03:09:07;6.97;;;3.80;;
57191;SDS011;43052;52.588;13.396;2023-04-01T03:11:32;6.88;;;3.58;;
57191;SDS011;43052;52.588;13.396;2023-04-01T03:13:58;7.63;;;3.83;;
57191;SDS011;43052;52.588;13.396;2023-04-01T03:16:23;6.38;;;3.58;;
57191;SDS011;43052;52.588;13.396;2023-04-01T03:18:49;7.88;;;4.22;;
57191;SDS011;43052;52.588;13.396;2023-04-01T03:21:18;6.38;;;4.18;;
57191;SDS011;43052;52.588;13.396;2023-04-01T03:23:45;6.32;;;4.20;;
57191;SDS011;43052;52.588;13.396;2023-04-01T03:26:10;6.35;;;4.28;;
57191;SDS011;43052;52.588;13.396;2023-04-01T03:28:35;7.03;;;4.07;;
57191;SDS011;43052;52.588;13.396;2023-04-01T03:31:01;10.02;;;4.35;;
57191;SDS011;43052;52.588;13.396;2023-04-01T03:33:26;7.03;;;4.47;;
57191;SDS011;43052;52.588;13.396;2023-04-01T03:35:51;6.65;;;4.00;;
57191;SDS011;43052;52.588;13.396;2023-04-01T03:38:17;7.10;;;4.32;;
57191;SDS011;43052;52.588;13.396;2023-04-01T03:40:42;7.65;;;4.18;;
57191;SDS011;43052;52.588;13.396;2023-04-01T03:43:08;6.45;;;4.43;;
57191;SDS011;43052;52.588;13.396;2023-04-01T03:45:34;6.53;;;4.63;;
57191;SDS011;43052;52.588;13.396;2023-04-01T03:48:00;8.98;;;4.63;;
57191;SDS011;43052;52.588;13.396;2023-04-01T03:50:25;8.18;;;4.40;;
57191;SDS011;43052;52.588;13.396;2023-04-01T03:52:51;7.00;;;4.82;;
57191;SDS011;43052;52.588;13.396;2023-04-01T03:55:16;7.80;;;4.68;;
57191;SDS011;43052;52.588;13.396;2023-04-01T03:57:42;7.55;;;4.60;;
57191;SDS011;43052;52.588;13.396;2023-04-01T04:00:08;8.23;;;5.43;;
57191;SDS011;43052;52.588;13.396;2023-04-01T04:02:34;7.57;;;4.75;;
57191;SDS011;43052;52.588;13.396;2023-04-01T04:05:00;7.93;;;5.10;;
57191;SDS011;43052;52.588;13.396;2023-04-01T04:07:25;8.45;;;4.63;;
57191;SDS011;43052;52.588;13.396;2023-04-01T04:09:50;7.38;;;4.68;;
57191;SDS011;43052;52.588;13.396;2023-04-01T04:12:16;8.55;;;5.32;;
57191;SDS011;43052;52.588;13.396;2023-04-01T04:14:41;8.57;;;5.40;;
57191;SDS011;43052;52.588;13.396;2023-04-01T04:17:06;11.45;;;5.32;;
57191;SDS011;43052;52.588;13.396;2023-04-01T04:19:33;8.15;;;4.97;;
57191;SDS011;43052;52.588;13.396;2023-04-01T04:21:58;8.68;;;5.80;;
57191;SDS011;43052;52.588;13.396;2023-04-01T04:24:26;8.32;;;5.43;;
57191;SDS011;43052;52.588;13.396;2023-04-01T04:26:52;7.40;;;5.25;;
57191;SDS011;43052;52.588;13.396;2023-04-01T04:29:17;8.55;;;5.57;;
57191;SDS011;43052;52.588;13.396;2023-04-01T04:31:42;8.77;;;5.70;;
57191;SDS011;43052;52.588;13.396;2023-04-01T04:34:08;9.63;;;5.65;;
57191;SDS011;43052;52.588;13.396;2023-04-01T04:36:33;8.50;;;6.20;;
57191;SDS011;43052;52.588;13.396;2023-04-01T04:38:59;9.05;;;5.55;;
57191;SDS011;43052;52.588;13.396;2023-04-01T04:41:26;9.70;;;5.82;;
57191;SDS011;43052;52.588;13.396;2023-04-01T04:43:53;9.35;;;5.93;;
57191;SDS011;43052;52.588;13.396;2023-04-01T04:46:21;10.40;;;5.63;;
57191;SDS011;43052;52.588;13.396;2023-04-01T04:48:47;9.43;;;5.30;;
57191;SDS011;43052;52.588;13.396;2023-04-01T04:51:16;8.35;;;5.63;;
57191;SDS011;43052;52.588;13.396;2023-04-01T04:53:43;8.15;;;4.88;;
57191;SDS011;43052;52.588;13.396;2023-04-01T04:56:09;8.15;;;5.30;;
57191;SDS011;43052;52.588;13.396;2023-04-01T04:58:34;7.60;;;5.05;;
57191;SDS011;43052;52.588;13.396;2023-04-01T05:01:05;8.27;;;4.78;;
57191;SDS011;43052;52.588;13.396;2023-04-01T05:03:31;8.30;;;5.30;;
57191;SDS011;43052;52.588;13.396;2023-04-01T05:05:56;9.15;;;5.22;;
57191;SDS011;43052;52.588;13.396;2023-04-01T05:08:21;9.95;;;5.20;;
57191;SDS011;43052;52.588;13.396;2023-04-01T05:10:47;8.27;;;5.03;;
57191;SDS011;43052;52.588;13.396;2023-04-01T05:13:12;9.40;;;5.20;;
57191;SDS011;43052;52.588;13.396;2023-04-01T05:15:37;8.05;;;5.18;;
57191;SDS011;43052;52.588;13.396;2023-04-01T05:18:02;8.90;;;4.82;;
57191;SDS011;43052;52.588;13.396;2023-04-01T05:20:28;7.03;;;5.15;;
57191;SDS011;43052;52.588;13.396;2023-04-01T05:22:57;7.53;;;5.03;;
57191;SDS011;43052;52.588;13.396;2023-04-01T05:25:23;9.98;;;5.40;;
57191;SDS011;43052;52.588;13.396;2023-04-01T05:27:48;9.25;;;5.50;;
57191;SDS011;43052;52.588;13.396;2023-04-01T05:30:13;10.13;;;5.60;;
57191;SDS011;43052;52.588;13.396;2023-04-01T05:32:39;8.30;;;5.50;;
57191;SDS011;43052;52.588;13.396;2023-04-01T05:35:04;12.13;;;5.85;;
57191;SDS011;43052;52.588;13.396;2023-04-01T05:37:30;9.77;;;5.60;;
57191;SDS011;43052;52.588;13.396;2023-04-01T05:39:55;9.85;;;5.45;;
57191;SDS011;43052;52.588;13.396;2023-04-01T05:42:21;10.45;;;5.57;;
57191;SDS011;43052;52.588;13.396;2023-04-01T05:44:46;8.80;;;5.63;;
57191;SDS011;43052;52.588;13.396;2023-04-01T05:47:11;11.27;;;6.00;;
57191;SDS011;43052;52.588;13.396;2023-04-01T05:49:36;9.60;;;6.35;;
57191;SDS011;43052;52.588;13.396;2023-04-01T05:52:02;9.98;;;6.15;;
57191;SDS011;43052;52.588;13.396;2023-04-01T05:54:27;10.20;;;6.78;;
57191;SDS011;43052;52.588;13.396;2023-04-01T05:56:52;11.68;;;8.23;;
57191;SDS011;43052;52.588;13.396;2023-04-01T05:59:17;19.42;;;15.82;;
57191;SDS011;43052;52.588;13.396;2023-04-01T06:01:43;12.73;;;9.35;;
57191;SDS011;43052;52.588;13.396;2023-04-01T06:04:15;11.82;;;7.05;;
57191;SDS011;43052;52.588;13.396;2023-04-01T06:06:42;12.82;;;7.07;;
57191;SDS011;43052;52.588;13.396;2023-04-01T06:09:15;13.95;;;7.00;;
57191;SDS011;43052;52.588;13.396;2023-04-01T06:14:14;11.30;;;7.03;;
57191;SDS011;43052;52.588;13.396;2023-04-01T06:17:16;11.85;;;9.18;;
57191;SDS011;43052;52.588;13.396;2023-04-01T06:20:17;16.73;;;11.43;;
57191;SDS011;43052;52.588;13.396;2023-04-01T06:22:56;11.32;;;7.43;;
57191;SDS011;43052;52.588;13.396;2023-04-01T06:26:01;11.05;;;7.85;;
57191;SDS011;43052;52.588;13.396;2023-04-01T06:37:07;12.40;;;7.18;;
57191;SDS011;43052;52.588;13.396;2023-04-01T06:39:49;12.38;;;6.68;;
57191;SDS011;43052;52.588;13.396;2023-04-01T06:42:36;11.77;;;6.65;;
57191;SDS011;43052;52.588;13.396;2023-04-01T06:45:28;12.77;;;6.85;;
57191;SDS011;43052;52.588;13.396;2023-04-01T06:55:47;14.00;;;7.65;;
57191;SDS011;43052;52.588;13.396;2023-04-01T06:58:24;13.73;;;8.25;;
57191;SDS011;43052;52.588;13.396;2023-04-01T07:00:54;10.65;;;7.13;;
57191;SDS011;43052;52.588;13.396;2023-04-01T07:03:26;11.73;;;6.50;;
57191;SDS011;43052;52.588;13.396;2023-04-01T07:05:58;9.60;;;6.05;;
57191;SDS011;43052;52.588;13.396;2023-04-01T07:08:27;11.40;;;6.25;;
57191;SDS011;43052;52.588;13.396;2023-04-01T07:11:06;11.05;;;6.75;;
57191;SDS011;43052;52.588;13.396;2023-04-01T07:13:39;11.77;;;7.95;;
57191;SDS011;43052;52.588;13.396;2023-04-01T07:16:35;12.88;;;6.70;;
57191;SDS011;43052;52.588;13.396;2023-04-01T07:21:35;16.75;;;9.43;;
57191;SDS011;43052;52.588;13.396;2023-04-01T07:24:27;11.07;;;7.05;;
57191;SDS011;43052;52.588;13.396;2023-04-01T07:26:54;11.23;;;7.80;;
57191;SDS011;43052;52.588;13.396;2023-04-01T07:29:21;12.13;;;6.88;;
57191;SDS011;43052;52.588;13.396;2023-04-01T07:31:59;12.70;;;9.20;;
57191;SDS011;43052;52.588;13.396;2023-04-01T07:37:15;11.50;;;8.57;;
57191;SDS011;43052;52.588;13.396;2023-04-01T07:45:43;12.52;;;6.47;;
57191;SDS011;43052;52.588;13.396;2023-04-01T07:48:18;8.38;;;4.90;;
57191;SDS011;43052;52.588;13.396;2023-04-01T07:51:06;6.95;;;4.25;;
57191;SDS011;43052;52.588;13.396;2023-04-01T07:53:40;6.47;;;3.83;;
57191;SDS011;43052;52.588;13.396;2023-04-01T07:56:24;7.80;;;4.88;;
57191;SDS011;43052;52.588;13.396;2023-04-01T08:01:41;7.88;;;4.47;;
57191;SDS011;43052;52.588;13.396;2023-04-01T08:12:34;8.73;;;5.05;;
57191;SDS011;43052;52.588;13.396;2023-04-01T08:15:28;10.35;;;5.18;;
57191;SDS011;43052;52.588;13.396;2023-04-01T08:36:06;13.98;;;8.30;;
57191;SDS011;43052;52.588;13.396;2023-04-01T08:38:38;13.63;;;7.93;;
57191;SDS011;43052;52.588;13.396;2023-04-01T08:52:37;13.07;;;8.02;;
57191;SDS011;43052;52.588;13.396;2023-04-01T09:03:33;13.82;;;9.00;;
57191;SDS011;43052;52.588;13.396;2023-04-01T09:06:05;13.30;;;8.55;;
57191;SDS011;43052;52.588;13.396;2023-04-01T09:09:05;13.00;;;7.82;;
57191;SDS011;43052;52.588;13.396;2023-04-01T09:17:21;11.95;;;8.25;;
57191;SDS011;43052;52.588;13.396;2023-04-01T09:20:27;14.05;;;8.57;;
57191;SDS011;43052;52.588;13.396;2023-04-01T09:34:04;16.38;;;10.30;;
57191;SDS011;43052;52.588;13.396;2023-04-01T09:36:50;13.02;;;8.80;;
57191;SDS011;43052;52.588;13.396;2023-04-01T09:39:59;13.52;;;8.43;;
57191;SDS011;43052;52.588;13.396;2023-04-01T09:42:44;12.20;;;8.60;;
57191;SDS011;43052;52.588;13.396;2023-04-01T09:48:21;13.30;;;9.40;;
57191;SDS011;43052;52.588;13.396;2023-04-01T09:56:47;12.57;;;8.77;;
57191;SDS011;43052;52.588;13.396;2023-04-01T10:02:24;13.63;;;8.48;;
57191;SDS011;43052;52.588;13.396;2023-04-01T10:10:31;13.10;;;8.75;;
57191;SDS011;43052;52.588;13.396;2023-04-01T10:13:29;10.10;;;6.72;;
57191;SDS011;43052;52.588;13.396;2023-04-01T10:16:16;13.48;;;9.20;;
57191;SDS011;43052;52.588;13.396;2023-04-01T10:19:07;12.35;;;9.48;;
57191;SDS011;43052;52.588;13.396;2023-04-01T10:24:40;15.52;;;11.00;;
57191;SDS011;43052;52.588;13.396;2023-04-01T10:30:29;15.77;;;11.48;;
57191;SDS011;43052;52.588;13.396;2023-04-01T10:36:04;14.50;;;8.43;;
57191;SDS011;43052;52.588;13.396;2023-04-01T10:38:56;13.75;;;10.25;;
57191;SDS011;43052;52.588;13.396;2023-04-01T10:42:25;13.90;;;10.57;;
57191;SDS011;43052;52.588;13.396;2023-04-01T10:50:43;13.00;;;8.87;;
57191;SDS011;43052;52.588;13.396;2023-04-01T10:56:03;13.07;;;9.30;;
57191;SDS011;43052;52.588;13.396;2023-04-01T11:27:05;12.25;;;8.65;;
57191;SDS011;43052;52.588;13.396;2023-04-01T11:30:02;14.82;;;9.85;;
57191;SDS011;43052;52.588;13.396;2023-04-01T11:38:31;12.77;;;8.35;;
57191;SDS011;43052;52.588;13.396;2023-04-01T11:41:24;14.15;;;10.15;;
57191;SDS011;43052;52.588;13.396;2023-04-01T11:44:03;14.02;;;9.68;;
57191;SDS011;43052;52.588;13.396;2023-04-01T11:49:42;13.85;;;9.38;;
57191;SDS011;43052;52.588;13.396;2023-04-01T11:55:19;12.13;;;8.02;;
57191;SDS011;43052;52.588;13.396;2023-04-01T11:58:15;13.38;;;9.70;;
57191;SDS011;43052;52.588;13.396;2023-04-01T12:09:21;12.48;;;8.43;;
57191;SDS011;43052;52.588;13.396;2023-04-01T12:12:18;11.15;;;8.20;;
57191;SDS011;43052;52.588;13.396;2023-04-01T12:14:54;13.30;;;7.95;;
57191;SDS011;43052;52.588;13.396;2023-04-01T12:17:39;14.15;;;10.02;;
57191;SDS011;43052;52.588;13.396;2023-04-01T12:20:26;14.82;;;9.57;;
57191;SDS011;43052;52.588;13.396;2023-04-01T12:26:23;16.02;;;10.45;;
57191;SDS011;43052;52.588;13.396;2023-04-01T12:34:53;16.58;;;10.77;;
57191;SDS011;43052;52.588;13.396;2023-04-01T12:37:29;16.33;;;10.60;;
57191;SDS011;43052;52.588;13.396;2023-04-01T12:42:43;13.65;;;8.57;;
57191;SDS011;43052;52.588;13.396;2023-04-01T12:45:34;17.80;;;11.68;;
57191;SDS011;43052;52.588;13.396;2023-04-01T12:48:12;18.02;;;11.73;;
57191;SDS011;43052;52.588;13.396;2023-04-01T12:51:06;92.63;;;16.70;;
57191;SDS011;43052;52.588;13.396;2023-04-01T12:54:02;32.63;;;12.25;;
57191;SDS011;43052;52.588;13.396;2023-04-01T13:00:10;18.35;;;11.10;;
57191;SDS011;43052;52.588;13.396;2023-04-01T13:03:00;15.63;;;8.63;;
57191;SDS011;43052;52.588;13.396;2023-04-01T13:05:45;16.48;;;10.18;;
57191;SDS011;43052;52.588;13.396;2023-04-01T13:08:43;17.50;;;12.25;;
57191;SDS011;43052;52.588;13.396;2023-04-01T13:17:26;10.55;;;7.82;;
57191;SDS011;43052;52.588;13.396;2023-04-01T13:30:55;15.02;;;8.73;;
57191;SDS011;43052;52.588;13.396;2023-04-01T13:39:29;10.30;;;7.75;;
57191;SDS011;43052;52.588;13.396;2023-04-01T13:44:54;11.05;;;8.07;;
57191;SDS011;43052;52.588;13.396;2023-04-01T13:47:29;10.30;;;6.70;;
57191;SDS011;43052;52.588;13.396;2023-04-01T13:50:01;10.32;;;7.32;;
57191;SDS011;43052;52.588;13.396;2023-04-01T13:52:48;7.85;;;5.28;;
57191;SDS011;43052;52.588;13.396;2023-04-01T13:55:45;8.50;;;6.70;;
57191;SDS011;43052;52.588;13.396;2023-04-01T14:01:06;8.07;;;5.68;;
57191;SDS011;43052;52.588;13.396;2023-04-01T14:06:45;8.40;;;4.65;;
57191;SDS011;43052;52.588;13.396;2023-04-01T14:09:31;9.48;;;5.78;;
57191;SDS011;43052;52.588;13.396;2023-04-01T14:15:07;7.50;;;5.30;;
57191;SDS011;43052;52.588;13.396;2023-04-01T14:24:15;8.35;;;5.63;;
57191;SDS011;43052;52.588;13.396;2023-04-01T14:29:21;6.65;;;4.57;;
57191;SDS011;43052;52.588;13.396;2023-04-01T14:32:03;7.72;;;5.72;;
57191;SDS011;43052;52.588;13.396;2023-04-01T14:37:34;17.00;;;13.73;;
57191;SDS011;43052;52.588;13.396;2023-04-01T14:40:20;7.05;;;5.63;;
57191;SDS011;43052;52.588;13.396;2023-04-01T14:42:59;8.07;;;5.65;;
57191;SDS011;43052;52.588;13.396;2023-04-01T14:48:15;6.82;;;5.57;;
57191;SDS011;43052;52.588;13.396;2023-04-01T14:50:52;7.43;;;4.65;;
57191;SDS011;43052;52.588;13.396;2023-04-01T14:55:50;6.88;;;4.97;;
57191;SDS011;43052;52.588;13.396;2023-04-01T14:58:21;8.25;;;5.57;;
57191;SDS011;43052;52.588;13.396;2023-04-01T15:00:55;8.80;;;6.10;;
57191;SDS011;43052;52.588;13.396;2023-04-01T15:06:41;8.23;;;6.13;;
57191;SDS011;43052;52.588;13.396;2023-04-01T15:09:17;8.32;;;5.53;;
57191;SDS011;43052;52.588;13.396;2023-04-01T15:12:05;8.93;;;5.65;;
57191;SDS011;43052;52.588;13.396;2023-04-01T15:14:38;10.40;;;6.75;;
57191;SDS011;43052;52.588;13.396;2023-04-01T15:17:15;8.43;;;6.05;;
57191;SDS011;43052;52.588;13.396;2023-04-01T15:19:58;6.35;;;4.55;;
57191;SDS011;43052;52.588;13.396;2023-04-01T15:27:48;9.13;;;6.75;;
57191;SDS011;43052;52.588;13.396;2023-04-01T15:33:04;8.02;;;5.90;;
57191;SDS011;43052;52.588;13.396;2023-04-01T15:38:29;8.30;;;6.30;;
57191;SDS011;43052;52.588;13.396;2023-04-01T15:41:07;10.23;;;7.32;;
57191;SDS011;43052;52.588;13.396;2023-04-01T15:43:40;8.18;;;6.45;;
57191;SDS011;43052;52.588;13.396;2023-04-01T15:49:04;8.90;;;5.53;;
57191;SDS011;43052;52.588;13.396;2023-04-01T15:51:58;9.82;;;6.65;;
57191;SDS011;43052;52.588;13.396;2023-04-01T15:57:28;9.15;;;6.15;;
57191;SDS011;43052;52.588;13.396;2023-04-01T16:00:09;9.18;;;7.15;;
57191;SDS011;43052;52.588;13.396;2023-04-01T16:03:37;8.48;;;6.10;;
57191;SDS011;43052;52.588;13.396;2023-04-01T16:05:52;8.98;;;7.22;;
57191;SDS011;43052;52.588;13.396;2023-04-01T16:11:35;8.20;;;7.07;;
57191;SDS011;43052;52.588;13.396;2023-04-01T16:14:07;9.68;;;6.80;;
57191;SDS011;43052;52.588;13.396;2023-04-01T16:16:59;8.60;;;6.50;;
57191;SDS011;43052;52.588;13.396;2023-04-01T16:19:37;11.80;;;7.18;;
57191;SDS011;43052;52.588;13.396;2023-04-01T16:22:23;9.43;;;6.47;;
57191;SDS011;43052;52.588;13.396;2023-04-01T16:27:42;9.80;;;6.87;;
57191;SDS011;43052;52.588;13.396;2023-04-01T16:30:35;8.70;;;7.38;;
57191;SDS011;43052;52.588;13.396;2023-04-01T16:36:09;8.23;;;5.75;;
57191;SDS011;43052;52.588;13.396;2023-04-01T16:48:15;8.90;;;6.35;;
57191;SDS011;43052;52.588;13.396;2023-04-01T16:50:54;7.80;;;6.60;;
57191;SDS011;43052;52.588;13.396;2023-04-01T17:02:12;8.70;;;6.97;;
57191;SDS011;43052;52.588;13.396;2023-04-01T17:04:40;8.32;;;5.90;;
57191;SDS011;43052;52.588;13.396;2023-04-01T17:12:48;8.82;;;6.32;;
57191;SDS011;43052;52.588;13.396;2023-04-01T17:18:34;11.10;;;6.60;;
57191;SDS011;43052;52.588;13.396;2023-04-01T17:21:10;9.07;;;6.78;;
57191;SDS011;43052;52.588;13.396;2023-04-01T17:29:22;9.73;;;6.82;;
57191;SDS011;43052;52.588;13.396;2023-04-01T17:32:04;8.15;;;5.93;;
57191;SDS011;43052;52.588;13.396;2023-04-01T17:34:39;8.52;;;6.15;;
57191;SDS011;43052;52.588;13.396;2023-04-01T17:37:37;9.57;;;5.35;;
57191;SDS011;43052;52.588;13.396;2023-04-01T17:40:44;7.78;;;5.57;;
57191;SDS011;43052;52.588;13.396;2023-04-01T18:03:28;8.60;;;5.78;;
57191;SDS011;43052;52.588;13.396;2023-04-01T18:06:01;9.48;;;5.85;;
57191;SDS011;43052;52.588;13.396;2023-04-01T18:08:39;9.90;;;6.28;;
57191;SDS011;43052;52.588;13.396;2023-04-01T18:11:24;8.32;;;5.35;;
57191;SDS011;43052;52.588;13.396;2023-04-01T18:22:09;10.93;;;6.93;;
57191;SDS011;43052;52.588;13.396;2023-04-01T22:44:23;16.65;;;12.02;;
57191;SDS011;43052;52.588;13.396;2023-04-01T22:47:12;15.23;;;11.52;;
57191;SDS011;43052;52.588;13.396;2023-04-01T22:50:03;14.32;;;11.48;;
57191;SDS011;43052;52.588;13.396;2023-04-01T22:52:47;15.27;;;9.68;;
57191;SDS011;43052;52.588;13.396;2023-04-01T22:57:56;13.43;;;10.05;;
57191;SDS011;43052;52.588;13.396;2023-04-01T23:03:14;14.32;;;10.88;;
57191;SDS011;43052;52.588;13.396;2023-04-01T23:05:52;14.20;;;10.90;;
57191;SDS011;43052;52.588;13.396;2023-04-01T23:08:36;13.23;;;10.02;;
57191;SDS011;43052;52.588;13.396;2023-04-01T23:11:28;13.88;;;10.80;;
57191;SDS011;43052;52.588;13.396;2023-04-01T23:19:41;12.75;;;9.48;;
57191;SDS011;43052;52.588;13.396;2023-04-01T23:22:28;14.02;;;9.57;;
57191;SDS011;43052;52.588;13.396;2023-04-01T23:25:04;11.55;;;9.32;;
57191;SDS011;43052;52.588;13.396;2023-04-01T23:27:39;10.55;;;8.15;;
57191;SDS011;43052;52.588;13.396;2023-04-01T23:33:20;10.05;;;8.40;;
57191;SDS011;43052;52.588;13.396;2023-04-01T23:35:52;10.80;;;7.88;;
57191;SDS011;43052;52.588;13.396;2023-04-01T23:38:21;13.50;;;7.60;;
57191;SDS011;43052;52.588;13.396;2023-04-01T23:40:49;9.93;;;7.28;;
57191;SDS011;43052;52.588;13.396;2023-04-01T23:45:54;9.40;;;7.30;;
57191;SDS011;43052;52.588;13.396;2023-04-01T23:48:21;12.32;;;8.20;;
57191;SDS011;43052;52.588;13.396;2023-04-01T23:50:51;12.15;;;7.22;;
57191;SDS011;43052;52.588;13.396;2023-04-01T23:53:21;11.20;;;7.63;;
57191;SDS011;43052;52.588;13.396;2023-04-01T23:55:50;10.38;;;6.85;;
57191;SDS011;43052;52.588;13.396;2023-04-01T23:58:19;10.80;;;6.50;;
